Time;durP1;ratioP1;P1;durP2;ratioP2;P2;SDS_P1;SDS_P2;PMS_P1;PMS_P2;Temp;Humidity;BMP_temperature;BMP_pressure;BME280_temperature;BME280_humidity;BME280_pressure;Samples;Min_cycle;Max_cycle;Signal;HPM_P1;HPM_P2
2023/04/02 00:01:26;;;;;;;2.85;1.17;;;;;;;9.35;77.36;98948.13;4496865;31;33285;-78
2023/04/02 00:03:58;;;;;;;2.33;0.98;;;;;;;9.36;77.82;98937.84;4495295;31;32872;-75
2023/04/02 00:06:33;;;;;;;2.22;1.02;;;;;;;9.73;76.12;98935.69;4499215;31;32872;-74
2023/04/02 00:09:13;;;;;;;2.70;1.10;;;;;;;9.94;75.37;98941.56;4489735;31;32966;-76
2023/04/02 00:11:47;;;;;;;2.30;1.10;;;;;;;9.57;76.63;98936.88;4494976;31;33207;-78
2023/04/02 00:14:32;;;;;;;2.28;1.40;;;;;;;9.21;78.05;98939.88;4496873;31;33031;-79
2023/04/02 00:17:01;;;;;;;2.47;1.30;;;;;;;8.92;79.60;98956.91;4489660;31;33054;-75
2023/04/02 00:19:52;;;;;;;3.00;1.40;;;;;;;8.63;82.73;98954.09;4496089;31;33457;-79
2023/04/02 00:22:24;;;;;;;2.85;1.27;;;;;;;8.74;81.67;98952.81;4492231;31;32501;-79
2023/04/02 00:24:53;;;;;;;2.20;1.20;;;;;;;8.92;80.33;98951.75;4495816;31;33215;-76
2023/04/02 00:27:21;;;;;;;2.22;1.27;;;;;;;8.78;81.24;98946.94;4499503;31;34082;-75
2023/04/02 00:29:56;;;;;;;2.35;1.25;;;;;;;8.88;81.21;98949.87;4494420;31;33596;-76
2023/04/02 00:32:30;;;;;;;2.78;1.30;;;;;;;8.28;83.13;98956.13;4493039;31;32692;-79
2023/04/02 00:34:58;;;;;;;2.45;1.12;;;;;;;8.64;82.37;98956.72;4491947;31;33782;-80
2023/04/02 00:37:28;;;;;;;2.12;1.10;;;;;;;8.27;82.97;98959.53;4492930;31;33563;-79
2023/04/02 00:40:00;;;;;;;2.85;1.40;;;;;;;8.13;83.54;98963.25;4489789;31;34074;-78
2023/04/02 00:42:31;;;;;;;2.50;1.30;;;;;;;8.30;83.33;98959.66;4495325;31;32944;-78
2023/04/02 00:45:00;;;;;;;2.80;1.20;;;;;;;8.09;83.69;98969.97;4491763;31;33299;-76
2023/04/02 00:47:38;;;;;;;3.00;1.20;;;;;;;8.19;83.80;98966.06;4481619;31;32697;-75
2023/04/02 00:50:17;;;;;;;2.10;1.20;;;;;;;8.37;82.68;98974.56;4494406;31;33663;-78
2023/04/02 00:52:49;;;;;;;2.37;1.30;;;;;;;8.48;82.31;98968.97;4496853;31;31816;-76
2023/04/02 00:55:32;;;;;;;3.20;1.20;;;;;;;8.60;81.94;98974.63;4486360;31;32543;-73
2023/04/02 00:58:01;;;;;;;2.10;1.10;;;;;;;8.54;82.15;98975.28;4497709;31;33257;-78
2023/04/02 01:00:34;;;;;;;2.53;1.23;;;;;;;9.13;79.13;98968.03;4490615;31;34306;-78
2023/04/02 01:03:11;;;;;;;2.45;1.23;;;;;;;9.60;76.66;98966.31;4491147;31;32805;-75
2023/04/02 01:05:41;;;;;;;3.70;1.42;;;;;;;9.34;77.39;98967.06;4489928;31;32984;-78
2023/04/02 01:08:23;;;;;;;2.47;1.33;;;;;;;9.32;78.16;98967.00;4498282;31;33844;-76
2023/04/02 01:11:03;;;;;;;2.50;1.42;;;;;;;9.98;75.21;98961.53;4496294;31;33108;-78
2023/04/02 01:13:40;;;;;;;3.58;1.50;;;;;;;9.64;76.45;98963.00;4500709;31;32401;-76
2023/04/02 01:16:29;;;;;;;3.15;1.50;;;;;;;9.69;75.91;98957.09;4499854;31;34454;-76
2023/04/02 01:19:19;;;;;;;3.78;1.60;;;;;;;9.46;76.67;98957.16;4490568;31;33125;-78
2023/04/02 01:21:56;;;;;;;3.42;1.80;;;;;;;9.22;77.26;98968.38;4492337;31;33743;-78
2023/04/02 01:24:29;;;;;;;3.87;1.80;;;;;;;9.39;77.05;98960.38;4489282;31;32942;-78
2023/04/02 01:27:00;;;;;;;3.50;1.90;;;;;;;9.28;77.18;98972.03;4489396;31;33197;-75
2023/04/02 01:29:36;;;;;;;3.08;1.80;;;;;;;8.78;79.68;98977.91;4494199;31;33560;-77
2023/04/02 01:32:06;;;;;;;3.45;1.67;;;;;;;8.34;82.56;98971.84;4486144;31;34016;-77
2023/04/02 01:34:35;;;;;;;3.42;1.70;;;;;;;8.11;83.75;98975.19;4490296;31;33643;-79
2023/04/02 01:37:16;;;;;;;2.45;1.50;;;;;;;8.11;84.08;98978.66;4495146;31;33547;-77
2023/04/02 01:39:55;;;;;;;3.35;1.83;;;;;;;7.90;85.26;98978.66;4488343;31;33732;-75
2023/04/02 01:42:58;;;;;;;2.70;1.80;;;;;;;8.03;84.81;98975.75;4497177;31;33707;-76
2023/04/02 01:45:26;;;;;;;3.50;1.80;;;;;;;8.27;83.54;98983.62;4485590;31;32486;-77
2023/04/02 01:47:54;;;;;;;3.47;1.77;;;;;;;8.11;85.03;98977.78;4495474;31;33668;-73
2023/04/02 01:50:32;;;;;;;2.90;1.73;;;;;;;8.05;84.41;98984.47;4495582;31;33698;-77
2023/04/02 01:53:02;;;;;;;3.40;1.73;;;;;;;8.10;84.27;98981.19;4494651;31;33054;-74
2023/04/02 01:55:32;;;;;;;2.78;1.60;;;;;;;8.33;83.37;98980.41;4497859;31;33119;-78
2023/04/02 01:58:01;;;;;;;2.95;1.70;;;;;;;8.44;82.62;98984.34;4498933;31;32648;-76
2023/04/02 02:00:29;;;;;;;3.08;1.85;;;;;;;8.28;83.62;98989.66;4489361;31;33719;-78
2023/04/02 02:02:59;;;;;;;2.70;1.60;;;;;;;8.31;83.26;98989.81;4503788;31;33640;-74
2023/04/02 02:05:27;;;;;;;2.87;1.70;;;;;;;8.26;83.16;98991.31;4502134;31;33073;-74
2023/04/02 02:07:56;;;;;;;3.67;1.73;;;;;;;8.37;82.56;98991.75;4497176;31;33669;-78
2023/04/02 02:10:34;;;;;;;3.00;1.50;;;;;;;8.20;83.19;98991.06;4492243;31;33548;-79
2023/04/02 02:13:02;;;;;;;3.33;1.87;;;;;;;8.16;83.76;98994.34;4493552;31;33035;-76
2023/04/02 02:15:32;;;;;;;4.00;1.70;;;;;;;8.03;84.50;98996.38;4498604;31;33467;-75
2023/04/02 02:18:03;;;;;;;4.15;1.75;;;;;;;7.92;85.18;98991.59;4484673;31;32767;-76
2023/04/02 02:20:32;;;;;;;3.00;1.75;;;;;;;7.85;85.97;98991.34;4494874;31;34228;-78
2023/04/02 02:23:00;;;;;;;3.00;1.70;;;;;;;7.95;85.67;98997.78;4496675;31;34332;-76
2023/04/02 02:25:31;;;;;;;3.30;1.67;;;;;;;8.14;85.22;98999.44;4483424;31;31649;-76
2023/04/02 02:28:02;;;;;;;2.72;1.60;;;;;;;8.44;83.62;98994.69;4496881;31;33579;-77
2023/04/02 02:30:33;;;;;;;3.17;1.55;;;;;;;8.13;84.80;98996.78;4493940;31;32782;-77
2023/04/02 02:33:13;;;;;;;2.70;1.70;;;;;;;8.35;83.20;98989.09;4498959;31;33652;-79
2023/04/02 02:35:47;;;;;;;2.80;1.60;;;;;;;8.76;81.29;98987.31;4496718;31;32625;-78
2023/04/02 02:38:28;;;;;;;2.92;1.62;;;;;;;8.21;84.45;98992.84;4499046;31;34006;-77
2023/04/02 02:41:25;;;;;;;3.45;1.60;;;;;;;7.98;86.21;98997.91;4497902;31;33017;-76
2023/04/02 02:44:04;;;;;;;3.62;1.62;;;;;;;7.80;87.77;99008.34;4491809;31;32505;-78
2023/04/02 02:46:33;;;;;;;3.12;1.80;;;;;;;7.84;87.79;99004.16;4498888;31;32061;-75
2023/04/02 02:49:03;;;;;;;2.50;1.50;;;;;;;7.95;87.63;99010.66;4498823;31;33598;-79
2023/04/02 02:51:59;;;;;;;2.80;1.60;;;;;;;8.01;87.06;99005.75;4494442;31;33577;-78
2023/04/02 02:54:29;;;;;;;2.37;1.45;;;;;;;7.96;87.46;99004.72;4492473;31;32602;-77
2023/04/02 02:57:00;;;;;;;3.00;1.65;;;;;;;8.28;86.02;98999.97;4500296;31;33162;-76
2023/04/02 02:59:29;;;;;;;2.28;1.50;;;;;;;8.77;83.60;99004.56;4500192;31;33625;-78
2023/04/02 03:01:58;;;;;;;2.78;1.50;;;;;;;9.60;79.19;98999.00;4496123;31;34282;-77
2023/04/02 03:04:29;;;;;;;3.12;1.50;;;;;;;10.00;77.10;98992.66;4499471;31;34308;-73
2023/04/02 03:06:57;;;;;;;2.45;1.48;;;;;;;10.20;75.86;98991.62;4499596;31;33870;-77
2023/04/02 03:09:49;;;;;;;7.62;3.40;;;;;;;10.50;74.43;98990.00;4489784;31;34399;-76
2023/04/02 03:12:30;;;;;;;3.50;1.70;;;;;;;10.34;74.73;98992.09;4495354;31;32829;-74
2023/04/02 03:15:01;;;;;;;3.30;1.55;;;;;;;10.45;73.93;98986.38;4481712;31;33461;-75
2023/04/02 03:17:34;;;;;;;2.60;1.50;;;;;;;10.16;75.39;98994.94;4490766;31;33514;-75
2023/04/02 03:20:18;;;;;;;2.67;1.60;;;;;;;10.17;75.27;98993.22;4494040;31;34238;-77
2023/04/02 03:22:52;;;;;;;2.40;1.50;;;;;;;10.08;75.62;98995.50;4495423;31;33144;-78
2023/04/02 03:25:39;;;;;;;2.60;1.50;;;;;;;10.32;74.69;98996.34;4478981;31;33828;-75
2023/04/02 03:28:12;;;;;;;2.23;1.53;;;;;;;10.32;74.55;99001.53;4475242;31;32623;-78
2023/04/02 03:30:50;;;;;;;3.55;1.85;;;;;;;10.27;74.66;99003.03;4479107;31;34126;-75
2023/04/02 03:33:41;;;;;;;2.78;1.50;;;;;;;10.17;75.29;99004.44;4497984;31;33049;-76
2023/04/02 03:36:19;;;;;;;3.75;1.70;;;;;;;10.32;74.58;99006.69;4473850;31;32717;-78
2023/04/02 03:39:00;;;;;;;2.72;1.45;;;;;;;10.54;72.96;99002.22;4479412;31;33227;-76
2023/04/02 03:41:35;;;;;;;2.58;1.62;;;;;;;9.49;76.05;99002.94;4472474;31;32828;-76
2023/04/02 03:44:10;;;;;;;3.17;1.80;;;;;;;8.52;80.80;99009.56;4481619;31;33120;-77
2023/04/02 03:46:45;;;;;;;3.92;2.00;;;;;;;9.03;80.43;99018.47;4473971;31;33612;-76
2023/04/02 03:49:47;;;;;;;3.28;1.92;;;;;;;8.93;80.28;99020.66;4494654;31;32612;-77
2023/04/02 03:52:24;;;;;;;2.78;1.80;;;;;;;8.80;80.52;99015.00;4440608;31;32838;-74
2023/04/02 03:54:56;;;;;;;3.65;1.70;;;;;;;8.66;82.21;99027.38;4479716;31;32922;-78
2023/04/02 03:57:30;;;;;;;2.85;1.80;;;;;;;8.29;83.52;99024.97;4479470;31;33472;-76
2023/04/02 04:00:15;;;;;;;3.30;1.70;;;;;;;8.77;82.14;99027.81;4482725;31;33110;-76
2023/04/02 04:02:48;;;;;;;2.97;1.80;;;;;;;10.11;75.67;99021.47;4476541;31;33790;-74
2023/04/02 04:05:25;;;;;;;4.05;1.90;;;;;;;10.56;72.81;99018.69;4483492;31;33058;-78
2023/04/02 04:07:58;;;;;;;2.83;1.60;;;;;;;10.04;73.78;99018.69;4487197;31;33526;-77
2023/04/02 04:10:27;;;;;;;3.78;2.08;;;;;;;10.45;71.67;99028.72;4487573;31;32856;-74
2023/04/02 04:13:20;;;;;;;2.70;1.65;;;;;;;10.89;70.46;99030.94;4498399;31;34184;-76
2023/04/02 04:16:18;;;;;;;3.50;1.83;;;;;;;10.18;72.43;99028.62;4498898;31;33489;-77
2023/04/02 04:18:55;;;;;;;2.92;1.80;;;;;;;10.02;74.19;99038.47;4490489;31;32813;-75
2023/04/02 04:21:37;;;;;;;3.60;2.25;;;;;;;9.79;74.41;99044.50;4489708;31;32678;-74
2023/04/02 04:24:11;;;;;;;3.53;2.00;;;;;;;9.83;73.97;99030.84;4492870;31;33075;-76
2023/04/02 04:26:55;;;;;;;3.22;1.90;;;;;;;10.09;72.83;99042.13;4497837;31;32918;-75
2023/04/02 04:29:39;;;;;;;3.80;2.20;;;;;;;10.08;72.84;99042.06;4497810;31;32487;-75
2023/04/02 04:32:31;;;;;;;2.78;1.87;;;;;;;9.66;74.69;99040.63;4498513;31;33197;-74
2023/04/02 04:35:25;;;;;;;3.17;2.07;;;;;;;9.97;74.09;99047.75;4485891;31;33826;-76
2023/04/02 04:38:02;;;;;;;4.18;2.10;;;;;;;9.67;74.83;99049.25;4495632;31;32802;-78
2023/04/02 04:40:36;;;;;;;3.72;2.30;;;;;;;9.33;77.10;99058.34;4487500;31;32855;-77
2023/04/02 04:43:06;;;;;;;3.28;2.20;;;;;;;9.33;77.20;99058.34;4497725;31;32241;-75
2023/04/02 04:45:42;;;;;;;4.12;2.28;;;;;;;9.41;77.10;99062.13;4487615;31;33283;-76
2023/04/02 04:48:25;;;;;;;4.18;2.35;;;;;;;10.15;73.73;99059.56;4496021;31;34016;-77
2023/04/02 04:51:00;;;;;;;3.80;2.40;;;;;;;9.34;76.21;99071.31;4496454;31;32936;-76
2023/04/02 04:53:29;;;;;;;3.65;2.22;;;;;;;9.30;76.11;99061.69;4496770;31;32544;-75
2023/04/02 04:56:02;;;;;;;4.12;2.58;;;;;;;9.50;77.34;99062.44;4484770;31;32029;-76
2023/04/02 04:58:50;;;;;;;3.70;2.20;;;;;;;9.87;75.29;99057.72;4488656;31;33141;-74
2023/04/02 05:01:23;;;;;;;4.10;2.30;;;;;;;10.82;71.18;99056.66;4497959;31;33610;-78
2023/04/02 05:03:59;;;;;;;3.60;2.35;;;;;;;10.37;73.17;99058.63;4482374;32;31233;-77
2023/04/02 05:06:30;;;;;;;4.22;2.17;;;;;;;10.78;72.23;99060.00;4491690;31;33029;-75
2023/04/02 05:09:03;;;;;;;2.80;1.70;;;;;;;11.26;69.50;99073.53;4509792;31;33146;-78
2023/04/02 05:11:36;;;;;;;2.92;1.80;;;;;;;10.86;71.82;99061.94;4499337;31;33344;-76
2023/04/02 05:14:15;;;;;;;3.03;1.75;;;;;;;10.99;71.23;99064.97;4498423;31;32623;-76
2023/04/02 05:16:56;;;;;;;3.30;2.00;;;;;;;10.42;72.89;99065.72;4500975;31;32990;-77
2023/04/02 05:19:30;;;;;;;3.17;2.03;;;;;;;10.86;72.09;99073.19;4484598;31;31640;-74
2023/04/02 05:22:11;;;;;;;3.60;2.03;;;;;;;10.97;71.41;99070.91;4497252;31;33016;-75
2023/04/02 05:24:50;;;;;;;3.67;2.10;;;;;;;10.79;72.66;99069.50;4490881;31;33137;-77
2023/04/02 05:27:39;;;;;;;3.83;1.90;;;;;;;11.20;71.00;99072.53;4500691;31;33734;-78
2023/04/02 05:30:27;;;;;;;3.65;2.10;;;;;;;11.24;71.32;99080.38;4505923;31;32905;-77
2023/04/02 05:33:13;;;;;;;3.72;1.95;;;;;;;11.40;71.06;99077.44;4503072;31;33740;-75
2023/04/02 05:35:44;;;;;;;4.50;2.42;;;;;;;11.65;70.12;99073.84;4509953;31;32186;-76
2023/04/02 05:38:25;;;;;;;3.47;2.10;;;;;;;11.64;70.32;99073.78;4515004;31;34233;-77
2023/04/02 05:41:04;;;;;;;3.37;2.30;;;;;;;11.86;69.62;99070.97;4511170;31;33917;-76
2023/04/02 05:43:33;;;;;;;4.50;2.40;;;;;;;11.70;70.63;99081.75;4503710;31;33679;-79
2023/04/02 05:46:11;;;;;;;3.72;2.35;;;;;;;12.46;67.32;99085.59;4501048;31;33017;-75
2023/04/02 05:48:42;;;;;;;3.50;1.98;;;;;;;10.28;75.69;99087.66;4500783;31;33186;-77
2023/04/02 05:51:21;;;;;;;3.03;2.10;;;;;;;11.87;69.26;99093.47;4500149;31;33634;-76
2023/04/02 05:53:54;;;;;;;3.62;2.40;;;;;;;10.63;75.07;99095.75;4501035;31;33669;-76
2023/04/02 05:56:27;;;;;;;4.20;2.37;;;;;;;10.86;74.58;99104.28;4500263;31;32380;-76
2023/04/02 05:59:21;;;;;;;3.50;2.20;;;;;;;11.64;70.78;99104.91;4486724;31;33286;-77
2023/04/02 06:02:02;;;;;;;2.87;2.03;;;;;;;11.93;69.18;99101.47;4503656;31;32818;-78
2023/04/02 06:04:46;;;;;;;3.40;2.20;;;;;;;12.21;68.45;99089.25;4487963;31;33050;-75
2023/04/02 06:07:22;;;;;;;3.25;2.10;;;;;;;11.19;72.27;99101.87;4484813;31;31940;-76
2023/04/02 06:09:56;;;;;;;3.62;2.33;;;;;;;11.90;69.73;99097.91;4499573;31;32853;-75
2023/04/02 06:12:34;;;;;;;3.90;2.30;;;;;;;10.61;75.71;99100.88;4513531;31;34232;-76
2023/04/02 06:15:05;;;;;;;3.42;2.15;;;;;;;11.64;71.09;99107.50;4493179;31;32490;-77
2023/04/02 06:17:44;;;;;;;4.55;2.47;;;;;;;12.15;68.89;99097.75;4498717;31;32730;-77
2023/04/02 06:20:14;;;;;;;4.22;2.40;;;;;;;12.07;69.43;99103.56;4514234;31;33815;-76
2023/04/02 06:22:47;;;;;;;3.50;2.30;;;;;;;12.15;69.19;99099.50;4510028;31;34261;-76
2023/04/02 06:25:27;;;;;;;3.78;2.33;;;;;;;12.14;69.18;99113.28;4499971;31;33911;-78
2023/04/02 06:27:57;;;;;;;3.42;2.10;;;;;;;11.91;70.41;99112.66;4514124;31;33257;-79
2023/04/02 06:30:37;;;;;;;3.75;2.30;;;;;;;12.08;69.35;99110.53;4498905;31;32683;-79
2023/04/02 06:33:05;;;;;;;3.80;2.40;;;;;;;12.30;69.53;99115.44;4492059;31;32656;-77
2023/04/02 06:35:34;;;;;;;3.90;2.40;;;;;;;11.17;73.79;99121.69;4513995;31;33947;-78
2023/04/02 06:38:04;;;;;;;3.83;2.70;;;;;;;11.25;73.30;99118.44;4485775;31;33092;-80
2023/04/02 06:40:44;;;;;;;3.87;2.60;;;;;;;11.96;71.44;99119.72;4500522;31;33614;-79
2023/04/02 06:43:26;;;;;;;4.05;2.58;;;;;;;11.57;73.01;99125.50;4495569;31;33684;-77
2023/04/02 06:45:55;;;;;;;4.12;2.90;;;;;;;11.83;71.53;99121.91;4487218;31;33027;-75
2023/04/02 06:48:25;;;;;;;3.65;2.30;;;;;;;12.14;71.58;99126.28;4497710;31;33686;-77
2023/04/02 06:50:56;;;;;;;4.07;2.50;;;;;;;12.22;71.11;99118.69;4491069;31;33584;-77
2023/04/02 06:53:27;;;;;;;3.03;2.12;;;;;;;12.00;71.77;99118.97;4475198;31;33699;-79
2023/04/02 06:56:26;;;;;;;4.12;2.42;;;;;;;11.74;71.85;99133.78;4497566;31;33599;-77
2023/04/02 06:58:54;;;;;;;3.15;1.90;;;;;;;12.07;71.64;99133.03;4510708;31;33347;-76
2023/04/02 07:01:28;;;;;;;6.07;2.20;;;;;;;11.91;70.71;99128.22;4496553;31;33457;-75
2023/04/02 07:03:56;;;;;;;4.07;2.30;;;;;;;11.80;71.57;99131.38;4497690;31;33392;-78
2023/04/02 07:06:25;;;;;;;3.92;2.10;;;;;;;11.56;72.89;99134.09;4497454;31;33611;-73
2023/04/02 07:08:54;;;;;;;4.05;2.17;;;;;;;11.75;72.31;99137.25;4507030;31;34405;-78
2023/04/02 07:11:22;;;;;;;3.37;1.95;;;;;;;11.71;71.75;99135.41;4510558;31;32156;-77
2023/04/02 07:13:50;;;;;;;4.40;1.85;;;;;;;11.91;71.49;99134.28;4507249;31;33870;-74
2023/04/02 07:16:20;;;;;;;3.55;1.92;;;;;;;12.05;71.77;99131.19;4497556;31;33405;-76
2023/04/02 07:18:48;;;;;;;3.25;2.05;;;;;;;12.32;69.87;99131.06;4498549;31;33115;-76
2023/04/02 07:21:16;;;;;;;3.20;1.70;;;;;;;12.04;70.41;99134.66;4499674;31;34568;-77
2023/04/02 07:23:44;;;;;;;3.90;2.10;;;;;;;12.18;70.67;99135.91;4516067;31;33805;-79
2023/04/02 07:26:16;;;;;;;3.08;1.90;;;;;;;12.54;69.76;99142.94;4499947;31;33598;-74
2023/04/02 07:28:45;;;;;;;3.08;1.87;;;;;;;12.30;69.63;99146.59;4512302;31;32706;-76
2023/04/02 07:31:16;;;;;;;3.22;1.95;;;;;;;11.96;70.08;99147.41;4496962;31;31816;-79
2023/04/02 07:33:44;;;;;;;3.62;1.90;;;;;;;12.03;70.58;99135.47;4499848;31;33408;-78
2023/04/02 07:36:18;;;;;;;3.50;2.12;;;;;;;11.95;71.34;99145.63;4512420;31;33688;-77
2023/04/02 07:38:46;;;;;;;3.30;2.00;;;;;;;12.28;71.43;99140.50;4496526;31;33239;-77
2023/04/02 07:41:14;;;;;;;4.15;2.53;;;;;;;12.32;71.62;99134.56;4514517;31;34220;-78
2023/04/02 07:43:42;;;;;;;3.45;2.40;;;;;;;12.44;69.83;99146.09;4499948;31;33372;-76
2023/04/02 07:46:10;;;;;;;3.20;2.05;;;;;;;12.32;69.57;99147.56;4513438;31;34259;-77
2023/04/02 07:48:39;;;;;;;4.35;2.62;;;;;;;12.20;70.39;99152.41;4498802;31;32949;-77
2023/04/02 07:51:18;;;;;;;3.95;2.40;;;;;;;11.96;72.53;99137.91;4500903;31;34394;-77
2023/04/02 07:53:48;;;;;;;3.85;2.15;;;;;;;12.56;69.53;99142.13;4514489;31;32686;-78
2023/04/02 07:56:19;;;;;;;3.60;2.20;;;;;;;12.54;69.45;99145.53;4498618;31;33300;-74
2023/04/02 07:58:47;;;;;;;4.07;2.87;;;;;;;12.35;70.11;99151.94;4508629;31;32207;-77
2023/04/02 08:01:25;;;;;;;4.82;2.70;;;;;;;12.10;71.44;99145.19;4510563;31;34320;-78
2023/04/02 08:03:55;;;;;;;4.75;2.90;;;;;;;12.25;70.09;99155.16;4513152;31;33644;-78
2023/04/02 08:06:24;;;;;;;5.18;3.53;;;;;;;12.08;71.28;99158.12;4513985;31;32579;-76
2023/04/02 08:08:52;;;;;;;4.55;3.10;;;;;;;12.11;71.28;99152.12;4512005;31;33031;-77
2023/04/02 08:11:19;;;;;;;4.67;2.70;;;;;;;11.46;73.74;99165.78;4512687;31;33680;-79
2023/04/02 08:13:47;;;;;;;4.07;2.75;;;;;;;12.24;71.87;99164.63;4507604;31;33567;-77
2023/04/02 08:16:15;;;;;;;5.07;2.70;;;;;;;12.88;69.80;99167.19;4511808;31;33382;-78
2023/04/02 08:18:46;;;;;;;5.65;3.67;;;;;;;12.87;69.33;99173.22;4513009;31;32952;-77
2023/04/02 08:21:13;;;;;;;3.83;2.45;;;;;;;12.68;69.96;99167.53;4512757;31;34397;-76
2023/04/02 08:23:43;;;;;;;5.25;3.08;;;;;;;12.91;68.80;99182.88;4492361;31;32181;-77
2023/04/02 08:26:15;;;;;;;5.60;3.58;;;;;;;13.13;68.94;99187.78;4512038;31;33647;-76
2023/04/02 08:28:43;;;;;;;4.97;3.40;;;;;;;13.44;68.11;99177.22;4506217;31;33748;-76
2023/04/02 08:31:12;;;;;;;4.55;3.12;;;;;;;13.51;66.90;99180.00;4507198;31;34238;-76
2023/04/02 08:33:39;;;;;;;5.22;3.30;;;;;;;13.27;67.00;99182.00;4512409;31;34533;-77
2023/04/02 08:36:15;;;;;;;4.75;3.05;;;;;;;12.96;67.89;99173.44;4507307;31;32590;-79
2023/04/02 08:38:42;;;;;;;4.55;3.20;;;;;;;12.58;69.29;99175.94;4510343;31;33412;-79
2023/04/02 08:41:21;;;;;;;4.80;3.28;;;;;;;13.00;69.38;99188.31;4509750;31;33927;-80
2023/04/02 08:44:04;;;;;;;4.80;3.08;;;;;;;13.02;69.03;99183.13;4498144;31;32998;-79
2023/04/02 08:46:48;;;;;;;4.80;3.12;;;;;;;13.14;68.32;99192.09;4510140;31;33553;-79
2023/04/02 08:49:21;;;;;;;5.20;3.33;;;;;;;12.87;70.10;99188.81;4500799;31;32421;-77
2023/04/02 08:51:49;;;;;;;4.55;3.10;;;;;;;13.39;67.21;99187.53;4495310;31;33441;-79
2023/04/02 08:54:27;;;;;;;4.65;3.15;;;;;;;12.97;68.62;99198.59;4512605;31;34517;-76
2023/04/02 08:57:39;;;;;;;5.28;3.30;;;;;;;13.16;68.53;99200.81;4512231;31;33822;-75
2023/04/02 09:00:31;;;;;;;4.75;3.12;;;;;;;13.28;67.48;99199.38;4497686;31;32012;-81
2023/04/02 09:03:02;;;;;;;5.07;3.07;;;;;;;12.19;71.81;99218.16;4513659;31;33897;-76
2023/04/02 09:05:33;;;;;;;4.57;3.30;;;;;;;12.87;69.47;99209.63;4489611;31;32927;-75
2023/04/02 09:08:06;;;;;;;5.15;3.05;;;;;;;13.30;67.76;99208.13;4499745;31;33529;-78
2023/04/02 09:10:42;;;;;;;4.95;3.10;;;;;;;13.59;66.98;99203.59;4491099;31;33457;-80
2023/04/02 09:13:22;;;;;;;4.07;2.83;;;;;;;13.10;68.84;99208.47;4500143;31;33337;-78
2023/04/02 09:16:15;;;;;;;4.32;3.53;;;;;;;12.55;72.26;99218.28;4499180;31;32931;-78
2023/04/02 09:18:44;;;;;;;4.68;3.37;;;;;;;13.32;70.01;99219.44;4488593;31;32489;-76
2023/04/02 09:21:22;;;;;;;5.23;3.30;;;;;;;12.65;71.70;99219.44;4514548;31;33090;-76
2023/04/02 09:23:49;;;;;;;5.05;3.58;;;;;;;12.50;71.67;99225.09;4509945;31;33013;-78
2023/04/02 09:26:22;;;;;;;5.00;3.17;;;;;;;12.86;71.03;99213.91;4495252;31;33722;-78
2023/04/02 09:28:52;;;;;;;4.20;3.00;;;;;;;12.98;69.70;99218.59;4513473;31;31899;-75
2023/04/02 09:31:28;;;;;;;6.03;3.20;;;;;;;13.77;66.72;99213.53;4495457;31;33896;-75
2023/04/02 09:33:56;;;;;;;4.37;3.10;;;;;;;14.04;67.48;99218.50;4499332;31;32277;-78
2023/04/02 09:36:36;;;;;;;5.80;3.30;;;;;;;13.67;68.10;99227.19;4500457;31;34020;-79
2023/04/02 09:39:18;;;;;;;5.30;3.28;;;;;;;13.93;66.50;99231.28;4495402;31;32993;-76
2023/04/02 09:41:46;;;;;;;4.50;3.00;;;;;;;13.33;69.41;99236.81;4495739;31;32834;-77
2023/04/02 09:44:30;;;;;;;4.80;3.27;;;;;;;12.99;69.81;99235.91;4499700;31;32714;-78
2023/04/02 09:47:03;;;;;;;4.78;3.12;;;;;;;13.48;67.65;99237.19;4494880;31;32778;-77
2023/04/02 09:49:36;;;;;;;5.40;3.10;;;;;;;13.53;67.22;99235.56;4511446;31;33384;-77
2023/04/02 09:52:18;;;;;;;4.80;3.10;;;;;;;14.00;66.64;99240.09;4500182;31;32999;-77
2023/04/02 09:55:10;;;;;;;3.97;2.97;;;;;;;13.89;67.41;99237.28;4505494;31;32864;-76
2023/04/02 09:57:38;;;;;;;4.90;3.92;;;;;;;13.21;69.77;99246.87;4490714;31;32449;-75
2023/04/02 10:00:25;;;;;;;5.40;3.53;;;;;;;13.69;68.01;99243.72;4498693;31;33385;-80
2023/04/02 10:03:24;;;;;;;6.37;3.70;;;;;;;13.84;67.38;99251.03;4491737;31;32369;-81
2023/04/02 10:06:10;;;;;;;5.03;3.62;;;;;;;13.43;71.36;99253.53;4488928;31;31627;-77
2023/04/02 10:08:41;;;;;;;4.60;3.45;;;;;;;13.76;67.99;99248.25;4506681;31;32788;-76
2023/04/02 10:11:16;;;;;;;4.47;3.50;;;;;;;13.47;70.41;99251.03;4494267;31;34179;-79
2023/04/02 10:13:53;;;;;;;5.05;3.47;;;;;;;13.87;69.86;99251.97;4498531;31;33556;-76
2023/04/02 10:16:49;;;;;;;5.37;3.70;;;;;;;14.23;70.47;99248.41;4499118;31;33736;-80
2023/04/02 10:19:42;;;;;;;4.53;3.37;;;;;;;13.75;70.41;99238.66;4486066;31;32723;-78
2023/04/02 10:22:18;;;;;;;6.18;3.72;;;;;;;13.89;68.87;99250.28;4497544;31;32674;-75
2023/04/02 10:24:47;;;;;;;6.10;4.60;;;;;;;13.91;70.46;99243.38;4513033;31;32312;-80
2023/04/02 10:27:36;;;;;;;4.90;3.53;;;;;;;14.06;70.31;99240.25;4486950;31;33104;-77
2023/04/02 10:30:13;;;;;;;6.00;3.60;;;;;;;13.91;69.19;99232.97;4495014;31;33086;-76
2023/04/02 10:32:50;;;;;;;5.05;3.65;;;;;;;14.48;68.16;99238.50;4497262;31;33072;-78
2023/04/02 10:35:27;;;;;;;4.47;3.50;;;;;;;14.18;67.13;99234.41;4496759;31;32049;-77
2023/04/02 10:38:12;;;;;;;5.70;3.77;;;;;;;14.06;66.89;99234.13;4511721;31;33476;-81
2023/04/02 10:41:00;;;;;;;4.00;3.25;;;;;;;13.20;71.78;99234.72;4477845;31;31611;-75
2023/04/02 10:43:51;;;;;;;4.80;3.67;;;;;;;14.05;66.45;99230.66;4489332;31;34158;-79
2023/04/02 10:46:29;;;;;;;5.00;3.70;;;;;;;13.63;68.79;99225.38;4492872;31;32279;-81
2023/04/02 10:49:15;;;;;;;5.83;3.33;;;;;;;14.57;65.78;99215.25;4489033;31;32899;-77
2023/04/02 10:51:53;;;;;;;5.90;3.45;;;;;;;15.26;63.61;99224.31;4509999;31;32645;-79
2023/04/02 10:54:29;;;;;;;4.87;3.60;;;;;;;14.78;65.59;99220.00;4502898;31;32901;-79
2023/04/02 10:57:05;;;;;;;5.57;3.50;;;;;;;15.13;66.20;99218.00;4491797;31;32477;-77
2023/04/02 10:59:34;;;;;;;4.95;3.50;;;;;;;15.52;63.39;99211.66;4492348;31;32798;-78
2023/04/02 11:02:20;;;;;;;4.93;3.30;;;;;;;16.23;60.87;99210.09;4499948;31;33619;-77
2023/04/02 11:04:48;;;;;;;4.56;3.00;;;;;;;15.97;61.07;99214.09;4498269;31;33519;-75
2023/04/02 11:07:20;;;;;;;4.45;3.00;;;;;;;15.70;60.87;99225.84;4515461;31;34021;-78
2023/04/02 11:09:50;;;;;;;3.91;2.80;;;;;;;15.01;63.01;99223.03;4495755;31;35476;-79
2023/04/02 11:12:25;;;;;;;3.97;2.92;;;;;;;15.56;61.16;99219.56;4500787;31;34040;-77
2023/04/02 11:14:53;;;;;;;4.30;2.85;;;;;;;15.40;61.70;99216.72;4510918;31;32913;-80
2023/04/02 11:17:22;;;;;;;5.30;3.30;;;;;;;15.54;61.04;99225.63;4495822;31;31577;-77
2023/04/02 11:19:50;;;;;;;6.07;2.90;;;;;;;16.05;59.24;99218.56;4488702;31;33765;-77
2023/04/02 11:22:22;;;;;;;5.07;3.30;;;;;;;15.82;59.39;99220.88;4504475;31;35503;-76
2023/04/02 11:24:51;;;;;;;4.28;3.05;;;;;;;14.60;63.03;99220.50;4494769;31;33304;-77
2023/04/02 11:27:29;;;;;;;4.33;3.03;;;;;;;14.62;64.08;99217.94;4494834;31;33852;-77
2023/04/02 11:30:15;;;;;;;4.35;2.90;;;;;;;15.40;61.28;99215.84;4494256;31;33756;-75
2023/04/02 11:32:48;;;;;;;4.53;2.80;;;;;;;15.01;63.04;99212.59;4509640;31;32674;-78
2023/04/02 11:35:35;;;;;;;4.07;2.78;;;;;;;15.28;62.03;99206.09;4498804;31;33691;-78
2023/04/02 11:38:10;;;;;;;4.60;2.90;;;;;;;15.73;60.54;99205.06;4512769;31;32235;-81
2023/04/02 11:40:43;;;;;;;5.67;3.10;;;;;;;14.63;61.42;99199.72;4498507;31;31682;-79
2023/04/02 11:43:33;;;;;;;4.03;2.80;;;;;;;14.94;61.70;99205.50;4486072;31;32931;-79
2023/04/02 11:46:01;;;;;;;4.53;2.95;;;;;;;15.96;58.49;99199.28;4510272;31;32869;-80
2023/04/02 11:48:34;;;;;;;4.43;3.15;;;;;;;14.89;61.47;99196.72;4510621;31;33179;-76
2023/04/02 11:51:31;;;;;;;4.03;2.87;;;;;;;14.81;61.43;99206.13;4497217;31;33250;-78
2023/04/02 11:54:00;;;;;;;3.70;2.85;;;;;;;15.16;61.89;99208.47;4485360;31;33601;-75
2023/04/02 11:56:32;;;;;;;4.10;2.67;;;;;;;14.98;61.82;99207.31;4512186;31;33989;-78
2023/04/02 11:59:38;;;;;;;4.72;3.00;;;;;;;15.49;61.72;99206.41;4501009;31;33012;-75
2023/04/02 12:02:24;;;;;;;4.20;3.05;;;;;;;15.44;60.43;99201.97;4511551;31;33255;-78
2023/04/02 12:05:30;;;;;;;4.95;3.30;;;;;;;15.60;58.89;99192.63;4501326;31;33212;-76
2023/04/02 12:08:28;;;;;;;3.60;2.50;;;;;;;16.71;55.89;99190.59;4487187;31;33239;-74
2023/04/02 12:11:00;;;;;;;4.10;2.80;;;;;;;16.81;55.67;99191.56;4514907;31;32597;-77
2023/04/02 12:13:40;;;;;;;4.80;3.00;;;;;;;16.77;55.40;99184.53;4498286;31;33350;-79
2023/04/02 12:16:09;;;;;;;4.05;2.70;;;;;;;16.75;55.47;99190.63;4509738;31;32807;-77
2023/04/02 12:18:52;;;;;;;4.20;3.00;;;;;;;16.38;57.15;99179.75;4498943;31;33775;-76